createdAt,value
2019-03-15T00:02:05.929Z,64.50
2019-03-15T00:04:35.208Z,18.37
2019-03-15T00:07:04.471Z,9.20
2019-03-15T00:09:33.740Z,5.63
2019-03-15T00:12:03.007Z,9.37
2019-03-15T00:14:32.721Z,12.97
2019-03-15T00:17:02.959Z,8.00
2019-03-15T00:19:32.228Z,5.93
2019-03-15T00:22:01.498Z,9.20
2019-03-15T00:24:30.758Z,9.93
2019-03-15T00:27:00.026Z,6.37
2019-03-15T00:29:29.295Z,11.70
2019-03-15T00:31:58.577Z,12.30
2019-03-15T00:34:27.841Z,6.73
2019-03-15T00:36:57.153Z,14.60
2019-03-15T00:39:26.424Z,11.77
2019-03-15T00:41:55.758Z,9.33
2019-03-15T00:44:25.026Z,9.03
2019-03-15T00:46:54.302Z,7.40
2019-03-15T00:49:23.567Z,5.97
2019-03-15T00:51:52.825Z,7.90
2019-03-15T00:54:22.102Z,9.37
2019-03-15T00:56:51.442Z,6.33
2019-03-15T00:59:20.701Z,12.33
2019-03-15T01:01:49.982Z,9.43
2019-03-15T01:04:19.249Z,12.27
2019-03-15T01:06:48.548Z,9.80
2019-03-15T01:09:18.767Z,7.33
2019-03-15T01:11:48.046Z,7.77
2019-03-15T01:14:17.313Z,6.10
2019-03-15T01:16:46.573Z,7.90
2019-03-15T01:19:15.841Z,6.40
2019-03-15T01:21:45.102Z,6.30
2019-03-15T01:24:14.368Z,8.53
2019-03-15T01:26:43.630Z,8.77
2019-03-15T01:29:13.018Z,11.60
2019-03-15T01:31:43.265Z,6.37
2019-03-15T01:34:12.538Z,8.03
2019-03-15T01:36:41.894Z,11.70
2019-03-15T01:39:11.181Z,9.03
2019-03-15T01:41:40.444Z,6.37
2019-03-15T01:44:09.710Z,5.87
2019-03-15T01:46:38.973Z,7.80
2019-03-15T01:49:08.667Z,7.33
2019-03-15T01:51:37.985Z,7.53
2019-03-15T01:54:07.277Z,10.07
2019-03-15T01:56:36.528Z,8.83
2019-03-15T01:59:05.794Z,8.63
2019-03-15T02:01:35.056Z,8.63
2019-03-15T02:04:04.337Z,8.47
2019-03-15T02:06:33.588Z,14.60
2019-03-15T02:09:04.146Z,6.73
2019-03-15T02:11:33.421Z,11.23
2019-03-15T02:14:02.705Z,10.97
2019-03-15T02:16:31.974Z,10.43
2019-03-15T02:19:01.246Z,11.83
2019-03-15T02:21:30.508Z,10.93
2019-03-15T02:23:59.795Z,13.33
2019-03-15T02:26:29.058Z,9.37
2019-03-15T02:28:58.347Z,6.97
2019-03-15T02:31:27.605Z,10.27
2019-03-15T02:33:56.873Z,6.63
2019-03-15T02:36:27.214Z,10.33
2019-03-15T02:38:56.485Z,10.57
2019-03-15T02:41:25.757Z,13.33
2019-03-15T02:43:55.016Z,9.27
2019-03-15T02:46:24.344Z,5.60
2019-03-15T02:48:55.046Z,11.93
2019-03-15T02:51:24.315Z,11.23
2019-03-15T02:53:53.584Z,11.60
2019-03-15T02:56:22.866Z,5.53
2019-03-15T02:58:52.115Z,8.53
2019-03-15T03:01:21.399Z,8.57
2019-03-15T03:03:50.691Z,7.63
2019-03-15T03:06:19.965Z,8.50
2019-03-15T03:08:49.221Z,8.87
2019-03-15T03:11:18.495Z,10.93
2019-03-15T03:13:47.764Z,5.07
2019-03-15T03:16:18.562Z,12.93
2019-03-15T03:18:48.182Z,3.70
2019-03-15T03:21:17.487Z,7.47
2019-03-15T03:23:46.823Z,11.97
2019-03-15T03:26:16.103Z,10.50
2019-03-15T03:28:45.357Z,7.23
2019-03-15T03:31:15.882Z,9.90
2019-03-15T03:33:45.622Z,7.97
2019-03-15T03:36:14.977Z,10.70
2019-03-15T03:38:44.256Z,10.03
2019-03-15T03:41:13.513Z,9.90
2019-03-15T03:43:42.770Z,12.70
2019-03-15T03:46:12.428Z,5.43
2019-03-15T03:48:42.765Z,9.40
2019-03-15T03:51:12.025Z,5.73
2019-03-15T03:53:41.296Z,7.50
2019-03-15T03:56:10.627Z,9.40
2019-03-15T03:58:39.901Z,10.63
2019-03-15T04:01:09.178Z,8.40
2019-03-15T04:03:38.541Z,8.90
2019-03-15T04:06:07.865Z,8.07
2019-03-15T04:08:37.139Z,35.07
2019-03-15T04:11:06.407Z,25.40
2019-03-15T04:13:35.697Z,26.33
2019-03-15T04:16:04.964Z,15.90
2019-03-15T04:18:34.323Z,17.47
2019-03-15T04:21:03.570Z,37.97
2019-03-15T04:23:32.855Z,31.80
2019-03-15T04:26:02.112Z,58.57
2019-03-15T04:28:31.404Z,24.33
2019-03-15T04:31:00.658Z,24.53
2019-03-15T04:33:29.933Z,38.60
2019-03-15T04:35:59.201Z,11.63
2019-03-15T04:38:28.488Z,11.33
2019-03-15T04:40:57.744Z,17.23
2019-03-15T04:43:27.013Z,13.90
2019-03-15T04:45:56.302Z,17.87
2019-03-15T04:48:25.718Z,13.43
2019-03-15T04:50:55.049Z,24.00
2019-03-15T04:53:24.323Z,16.50
2019-03-15T04:55:53.586Z,20.77
2019-03-15T04:58:22.864Z,13.07
2019-03-15T05:00:52.129Z,15.10
2019-03-15T05:03:21.787Z,46.90
2019-03-15T05:06:02.692Z,31.23
2019-03-15T05:08:22.022Z,34.37
2019-03-15T05:10:51.297Z,47.10
2019-03-15T05:13:20.882Z,14.77
2019-03-15T05:15:50.141Z,28.10
2019-03-15T05:18:19.404Z,18.43
2019-03-15T05:20:48.677Z,14.37
2019-03-15T05:23:17.940Z,11.20
2019-03-15T05:25:47.220Z,11.63
2019-03-15T05:28:16.470Z,15.60
2019-03-15T05:30:45.761Z,21.63
2019-03-15T05:33:15.037Z,10.50
2019-03-15T05:35:44.333Z,16.50
2019-03-15T05:38:13.601Z,26.47
2019-03-15T05:40:42.883Z,11.20
2019-03-15T05:43:12.142Z,15.77
2019-03-15T05:45:41.430Z,14.63
2019-03-15T05:48:10.756Z,14.23
2019-03-15T05:50:40.942Z,16.80
2019-03-15T05:53:10.447Z,12.33
2019-03-15T05:55:40.785Z,16.20
2019-03-15T05:58:10.062Z,19.23
2019-03-15T06:00:39.341Z,21.13
2019-03-15T06:03:08.630Z,26.00
2019-03-15T06:05:37.902Z,35.23
2019-03-15T06:08:07.179Z,15.33
2019-03-15T06:10:36.463Z,22.73
2019-03-15T06:13:05.728Z,14.70
2019-03-15T06:15:35.005Z,27.57
2019-03-15T06:18:06.751Z,43.40
2019-03-15T06:20:35.243Z,59.83
2019-03-15T06:23:04.510Z,78.53
2019-03-15T06:25:33.790Z,54.37
2019-03-15T06:28:03.056Z,42.93
2019-03-15T06:30:32.326Z,19.80
2019-03-15T06:33:01.590Z,31.17
2019-03-15T06:35:30.911Z,20.53
2019-03-15T06:38:00.181Z,22.00
2019-03-15T06:40:29.453Z,16.93
2019-03-15T06:42:58.733Z,19.20
2019-03-15T06:45:27.989Z,34.33
2019-03-15T06:47:57.270Z,18.00
2019-03-15T06:50:26.533Z,16.77
2019-03-15T06:52:55.797Z,19.30
2019-03-15T06:55:25.519Z,16.60
2019-03-15T06:57:54.913Z,12.53
2019-03-15T07:00:24.182Z,12.10
2019-03-15T07:02:54.426Z,10.83
2019-03-15T07:05:23.697Z,14.10
2019-03-15T07:07:52.996Z,11.87
2019-03-15T07:10:22.301Z,12.73
2019-03-15T07:12:51.580Z,12.27
2019-03-15T07:15:20.847Z,13.13
2019-03-15T07:17:50.113Z,11.50
2019-03-15T07:20:20.252Z,12.27
2019-03-15T07:22:50.054Z,10.20
2019-03-15T07:25:19.367Z,9.50
2019-03-15T07:27:48.721Z,10.87
2019-03-15T07:30:17.999Z,12.90
2019-03-15T07:32:47.346Z,12.27
2019-03-15T07:35:16.612Z,10.30
2019-03-15T07:37:46.103Z,11.67
2019-03-15T07:40:16.347Z,8.13
2019-03-15T07:42:45.623Z,10.03
2019-03-15T07:45:15.048Z,9.30
2019-03-15T07:47:44.319Z,9.50
2019-03-15T07:50:15.020Z,10.47
2019-03-15T07:52:44.298Z,10.53
2019-03-15T07:55:14.526Z,16.67
2019-03-15T07:57:44.931Z,35.73
2019-03-15T08:00:15.538Z,44.33
2019-03-15T08:02:44.816Z,48.93
2019-03-15T08:05:14.153Z,52.63
2019-03-15T08:07:45.643Z,85.57
2019-03-15T08:10:14.391Z,72.20
2019-03-15T08:12:43.670Z,79.27
2019-03-15T08:15:13.517Z,63.87
2019-03-15T08:17:42.802Z,59.27
2019-03-15T08:20:14.178Z,38.33
2019-03-15T08:22:43.532Z,19.90
2019-03-15T08:25:13.773Z,18.03
2019-03-15T08:27:43.039Z,14.83
2019-03-15T08:30:16.461Z,11.50
2019-03-15T08:32:45.718Z,8.43
2019-03-15T08:35:15.060Z,10.63
2019-03-15T08:37:44.332Z,11.20
2019-03-15T08:40:14.463Z,15.87
2019-03-15T08:42:43.705Z,11.93
2019-03-15T08:45:17.922Z,10.20
2019-03-15T08:47:47.245Z,10.07
2019-03-15T08:50:20.039Z,10.60
2019-03-15T08:52:49.313Z,11.00
2019-03-15T08:55:19.644Z,9.47
2019-03-15T08:57:48.905Z,6.90
2019-03-15T09:00:18.973Z,6.60
2019-03-15T09:02:48.228Z,24.97
2019-03-15T09:05:18.146Z,26.90
2019-03-15T09:07:47.482Z,68.37
2019-03-15T09:10:22.969Z,49.30
2019-03-15T09:12:50.100Z,43.67
2019-03-15T09:15:19.378Z,80.63
2019-03-15T09:17:48.640Z,69.50
2019-03-15T09:20:17.928Z,31.17
2019-03-15T09:22:47.260Z,14.03
2019-03-15T09:25:20.368Z,25.70
2019-03-15T09:27:48.538Z,6.93
2019-03-15T09:30:23.652Z,9.00
2019-03-15T09:32:49.000Z,8.70
2019-03-15T09:35:19.337Z,5.73
2019-03-15T09:37:48.601Z,14.20
2019-03-15T09:40:17.899Z,20.70
2019-03-15T09:42:47.252Z,28.53
2019-03-15T09:45:20.653Z,25.67
2019-03-15T09:47:49.918Z,17.37
2019-03-15T09:50:33.676Z,7.10
2019-03-15T09:52:50.212Z,5.67
2019-03-15T09:55:31.929Z,11.63
2019-03-15T09:57:50.441Z,8.77
2019-03-15T10:00:20.457Z,13.67
2019-03-15T10:02:49.718Z,7.73
2019-03-15T10:05:18.988Z,7.50
2019-03-15T10:07:48.246Z,12.97
2019-03-15T10:10:18.876Z,13.93
2019-03-15T10:12:48.664Z,18.30
2019-03-15T10:15:18.002Z,25.57
2019-03-15T10:17:47.277Z,20.30
2019-03-15T10:20:16.557Z,19.23
2019-03-15T10:22:45.838Z,11.40
2019-03-15T10:25:17.817Z,6.57
2019-03-15T10:27:47.094Z,4.47
2019-03-15T10:30:19.507Z,8.67
2019-03-15T10:32:48.873Z,11.57
2019-03-15T10:35:18.202Z,11.60
2019-03-15T10:37:47.472Z,8.07
2019-03-15T10:40:21.181Z,12.87
2019-03-15T10:42:50.461Z,10.53
2019-03-15T10:45:19.730Z,13.87
2019-03-15T10:47:49.082Z,9.10
2019-03-15T10:50:19.406Z,19.50
2019-03-15T10:52:48.685Z,13.20
2019-03-15T10:55:20.667Z,14.40
2019-03-15T10:57:49.973Z,7.17
2019-03-15T11:00:20.089Z,5.80
2019-03-15T11:02:49.487Z,3.50
2019-03-15T11:05:18.829Z,3.57
2019-03-15T11:07:48.110Z,4.17
2019-03-15T11:10:17.369Z,8.77
2019-03-15T11:12:46.737Z,3.60
2019-03-15T11:15:16.598Z,3.27
2019-03-15T11:17:46.012Z,3.43
2019-03-15T11:20:15.319Z,3.00
2019-03-15T11:22:44.593Z,2.33
2019-03-15T11:25:13.989Z,2.97
2019-03-15T11:27:43.289Z,3.77
2019-03-15T11:30:15.706Z,2.90
2019-03-15T11:32:44.990Z,1.33
2019-03-15T11:35:14.246Z,1.57
2019-03-15T11:37:43.522Z,3.03
2019-03-15T11:40:19.153Z,1.40
2019-03-15T11:42:47.430Z,1.70
2019-03-15T11:45:16.709Z,2.50
2019-03-15T11:48:02.038Z,1.73
2019-03-15T11:50:20.761Z,1.80
2019-03-15T11:52:50.307Z,1.40
2019-03-15T11:55:19.671Z,1.60
2019-03-15T11:57:48.951Z,1.50
2019-03-15T12:00:18.944Z,3.53
2019-03-15T12:02:48.218Z,8.30
2019-03-15T12:05:17.482Z,3.43
2019-03-15T12:07:46.821Z,2.73
2019-03-15T12:10:17.703Z,1.90
2019-03-15T12:12:46.973Z,1.43
2019-03-15T12:15:17.170Z,1.50
2019-03-15T12:17:46.557Z,2.20
2019-03-15T12:20:15.860Z,2.10
2019-03-15T12:22:45.146Z,1.70
2019-03-15T12:25:14.410Z,1.93
2019-03-15T12:27:43.686Z,1.50
2019-03-15T12:30:18.646Z,1.97
2019-03-15T12:32:47.921Z,4.23
2019-03-15T12:35:17.197Z,2.60
2019-03-15T12:37:46.549Z,1.50
2019-03-15T12:40:16.955Z,1.87
2019-03-15T12:42:46.508Z,1.60
2019-03-15T12:45:16.221Z,2.00
2019-03-15T12:47:45.488Z,2.30
2019-03-15T12:50:15.656Z,8.77
2019-03-15T12:52:48.074Z,13.17
2019-03-15T12:55:16.273Z,12.33
2019-03-15T12:57:48.769Z,11.90
2019-03-15T13:00:21.056Z,11.03
2019-03-15T13:02:50.414Z,12.73
2019-03-15T13:05:19.678Z,7.90
2019-03-15T13:07:48.949Z,8.03
2019-03-15T13:10:20.706Z,5.70
2019-03-15T13:12:49.977Z,10.43
2019-03-15T13:15:19.261Z,4.60
2019-03-15T13:17:48.514Z,5.00
2019-03-15T13:20:18.131Z,3.10
2019-03-15T13:22:47.399Z,3.87
2019-03-15T13:25:16.672Z,3.27
2019-03-15T13:27:45.953Z,3.60
2019-03-15T13:30:16.170Z,4.13
2019-03-15T13:32:45.431Z,6.60
2019-03-15T13:35:14.848Z,5.63
2019-03-15T13:37:44.106Z,7.07
2019-03-15T13:40:14.515Z,7.57
2019-03-15T13:42:43.776Z,4.37
2019-03-15T13:45:14.330Z,3.40
2019-03-15T13:47:44.605Z,4.53
2019-03-15T13:50:18.242Z,6.13
2019-03-15T13:52:47.555Z,7.80
2019-03-15T13:55:16.828Z,3.20
2019-03-15T13:57:46.103Z,2.53
2019-03-15T14:00:19.622Z,3.27
2019-03-15T14:02:48.886Z,3.63
2019-03-15T14:05:18.176Z,4.47
2019-03-15T14:07:47.519Z,4.90
2019-03-15T14:10:17.241Z,4.97
2019-03-15T14:12:46.501Z,1.97
2019-03-15T14:15:22.008Z,2.20
2019-03-15T14:17:51.261Z,2.20
2019-03-15T14:20:20.521Z,2.70
2019-03-15T14:22:49.783Z,4.63
2019-03-15T14:25:26.667Z,6.27
2019-03-15T14:27:55.998Z,4.43
2019-03-15T14:30:25.274Z,6.87
2019-03-15T14:32:54.535Z,3.93
2019-03-15T14:35:23.809Z,3.20
2019-03-15T14:37:53.130Z,4.70
2019-03-15T14:40:22.555Z,3.90
2019-03-15T14:42:51.952Z,8.03
2019-03-15T14:45:21.400Z,2.77
2019-03-15T14:47:51.646Z,4.60
2019-03-15T14:50:20.944Z,3.07
2019-03-15T14:52:50.195Z,2.63
2019-03-15T14:55:19.470Z,3.50
2019-03-15T14:57:53.309Z,3.83
2019-03-15T15:00:20.555Z,4.13
2019-03-15T15:02:49.876Z,3.37
2019-03-15T15:05:19.153Z,2.77
2019-03-15T15:07:48.431Z,2.37
2019-03-15T15:10:18.312Z,2.27
2019-03-15T15:12:47.590Z,2.37
2019-03-15T15:15:18.350Z,2.93
2019-03-15T15:17:47.625Z,2.73
2019-03-15T15:20:16.964Z,2.13
2019-03-15T15:22:47.215Z,2.70
2019-03-15T15:25:17.309Z,3.70
2019-03-15T15:27:46.595Z,24.10
2019-03-15T15:30:19.416Z,5.93
2019-03-15T15:32:48.690Z,3.10
2019-03-15T15:35:18.028Z,3.33
2019-03-15T15:37:48.288Z,3.07
2019-03-15T15:40:18.375Z,2.53
2019-03-15T15:42:47.660Z,39.93
2019-03-15T15:45:16.937Z,24.67
2019-03-15T15:47:46.219Z,15.63
2019-03-15T15:50:16.224Z,12.00
2019-03-15T15:52:45.511Z,6.07
2019-03-15T15:55:15.625Z,3.80
2019-03-15T15:57:44.902Z,4.37
2019-03-15T16:00:18.911Z,5.00
2019-03-15T16:02:48.198Z,3.90
2019-03-15T16:05:17.460Z,5.33
2019-03-15T16:07:46.819Z,5.70
2019-03-15T16:10:18.173Z,4.70
2019-03-15T16:12:47.246Z,6.90
2019-03-15T16:15:22.594Z,5.10
2019-03-15T16:17:51.874Z,10.73
2019-03-15T16:20:21.141Z,5.50
2019-03-15T16:22:50.492Z,14.80
2019-03-15T16:25:19.767Z,4.67
2019-03-15T16:27:49.053Z,6.00
2019-03-15T16:30:19.766Z,8.20
2019-03-15T16:32:49.085Z,5.10
2019-03-15T16:35:18.716Z,5.07
2019-03-15T16:37:48.092Z,5.93
2019-03-15T16:40:17.348Z,5.00
2019-03-15T16:42:46.634Z,5.47
2019-03-15T16:45:22.026Z,4.83
2019-03-15T16:47:51.384Z,9.10
2019-03-15T16:50:20.637Z,8.20
2019-03-15T16:52:49.917Z,6.90
2019-03-15T16:55:19.207Z,5.93
2019-03-15T16:57:48.534Z,5.47
2019-03-15T17:00:17.812Z,5.03
2019-03-15T17:02:47.079Z,4.87
2019-03-15T17:05:16.353Z,5.90
2019-03-15T17:07:45.615Z,4.83
2019-03-15T17:10:18.881Z,4.73
2019-03-15T17:12:48.133Z,4.90
2019-03-15T17:15:27.566Z,8.20
2019-03-15T17:17:56.830Z,22.33
2019-03-15T17:20:26.113Z,23.17
2019-03-15T17:22:55.390Z,22.13
2019-03-15T17:25:24.669Z,9.63
2019-03-15T17:27:53.924Z,6.27
2019-03-15T17:30:23.203Z,5.73
2019-03-15T17:32:52.467Z,5.27
2019-03-15T17:35:21.904Z,5.30
2019-03-15T17:37:51.179Z,8.40
2019-03-15T17:40:21.201Z,14.07
2019-03-15T17:42:50.509Z,6.83
2019-03-15T17:45:19.837Z,3.93
2019-03-15T17:47:49.107Z,5.97
2019-03-15T17:50:25.979Z,2.50
2019-03-15T17:52:55.242Z,4.30
2019-03-15T17:55:24.515Z,3.90
2019-03-15T17:57:53.786Z,4.13
2019-03-15T18:00:29.772Z,3.77
2019-03-15T18:02:59.202Z,4.03
2019-03-15T18:05:28.522Z,2.60
2019-03-15T18:07:57.805Z,2.50
2019-03-15T18:10:27.075Z,2.20
2019-03-15T18:12:56.414Z,4.03
2019-03-15T18:15:25.697Z,32.80
2019-03-15T18:17:54.972Z,25.63
2019-03-15T18:20:24.254Z,10.40
2019-03-15T18:22:54.496Z,21.00
2019-03-15T18:25:23.773Z,19.50
2019-03-15T18:27:53.381Z,4.83
2019-03-15T18:30:22.666Z,8.13
2019-03-15T18:32:51.995Z,16.67
2019-03-15T18:35:33.011Z,22.00
2019-03-15T18:37:52.490Z,11.30
2019-03-15T18:40:21.838Z,26.40
2019-03-15T18:42:51.094Z,24.03
2019-03-15T18:45:20.372Z,13.17
2019-03-15T18:47:49.641Z,20.47
2019-03-15T18:50:28.010Z,37.57
2019-03-15T18:52:57.390Z,15.53
2019-03-15T18:55:27.023Z,39.27
2019-03-15T18:57:56.269Z,13.17
2019-03-15T19:00:25.835Z,29.60
2019-03-15T19:02:55.175Z,14.90
2019-03-15T19:05:24.453Z,23.40
2019-03-15T19:07:53.810Z,38.03
2019-03-15T19:10:23.086Z,31.17
2019-03-15T19:12:52.372Z,34.53
2019-03-15T19:15:21.985Z,18.40
2019-03-15T19:17:51.259Z,34.07
2019-03-15T19:20:20.546Z,79.73
2019-03-15T19:22:49.833Z,55.20
2019-03-15T19:25:19.120Z,16.00
2019-03-15T19:27:48.400Z,30.53
2019-03-15T19:30:18.921Z,33.50
2019-03-15T19:32:48.200Z,40.80
2019-03-15T19:35:17.468Z,24.60
2019-03-15T19:37:46.752Z,39.80
2019-03-15T19:40:20.212Z,84.60
2019-03-15T19:42:49.480Z,22.60
2019-03-15T19:45:18.832Z,21.30
2019-03-15T19:47:48.944Z,26.03
2019-03-15T19:50:20.373Z,5.17
2019-03-15T19:52:49.718Z,8.47
2019-03-15T19:55:19.027Z,5.30
2019-03-15T19:57:48.292Z,8.83
2019-03-15T20:00:22.108Z,5.30
2019-03-15T20:02:51.427Z,5.00
2019-03-15T20:05:20.720Z,2.90
2019-03-15T20:07:50.093Z,5.20
2019-03-15T20:10:19.513Z,3.77
2019-03-15T20:12:48.822Z,4.43
2019-03-15T20:15:18.102Z,9.13
2019-03-15T20:17:47.458Z,3.80
2019-03-15T20:20:18.072Z,9.80
2019-03-15T20:22:47.417Z,2.63
2019-03-15T20:25:17.342Z,3.43
2019-03-15T20:27:46.705Z,2.43
2019-03-15T20:30:26.680Z,2.13
2019-03-15T20:32:54.413Z,1.83
2019-03-15T20:35:23.675Z,2.40
2019-03-15T20:37:52.944Z,2.87
2019-03-15T20:40:23.158Z,4.70
2019-03-15T20:42:52.438Z,6.63
2019-03-15T20:45:29.266Z,3.33
2019-03-15T20:47:58.550Z,4.77
2019-03-15T20:50:27.833Z,3.40
2019-03-15T20:53:07.736Z,4.90
2019-03-15T20:55:29.346Z,3.60
2019-03-15T20:57:58.649Z,4.27
2019-03-15T21:00:35.527Z,3.43
2019-03-15T21:02:58.996Z,3.97
2019-03-15T21:05:28.376Z,2.83
2019-03-15T21:07:58.758Z,2.80
2019-03-15T21:10:28.055Z,3.27
2019-03-15T21:12:57.320Z,2.63
2019-03-15T21:15:27.687Z,6.30
2019-03-15T21:17:56.949Z,2.70
2019-03-15T21:20:26.215Z,2.40
2019-03-15T21:22:55.514Z,3.00
2019-03-15T21:25:24.803Z,3.20
2019-03-15T21:27:54.852Z,1.80
2019-03-15T21:30:26.338Z,2.53
2019-03-15T21:32:55.622Z,1.97
2019-03-15T21:35:25.981Z,2.10
2019-03-15T21:37:55.234Z,2.97
2019-03-15T21:40:24.517Z,3.10
2019-03-15T21:42:53.858Z,2.10
2019-03-15T21:45:23.191Z,3.83
2019-03-15T21:47:52.521Z,2.00
2019-03-15T21:50:22.953Z,2.47
2019-03-15T21:52:52.210Z,2.33
2019-03-15T21:55:21.524Z,2.23
2019-03-15T21:57:50.801Z,2.10
2019-03-15T22:00:20.648Z,2.60
2019-03-15T22:02:49.904Z,2.47
2019-03-15T22:05:19.186Z,2.37
2019-03-15T22:07:48.446Z,2.60
2019-03-15T22:10:17.994Z,3.27
2019-03-15T22:12:47.330Z,3.47
2019-03-15T22:15:16.887Z,2.10
2019-03-15T22:17:46.224Z,2.30
2019-03-15T22:20:16.437Z,2.10
2019-03-15T22:22:45.710Z,1.80
2019-03-15T22:25:14.999Z,1.70
2019-03-15T22:27:44.265Z,1.93
2019-03-15T22:30:14.494Z,2.17
2019-03-15T22:32:43.766Z,1.60
2019-03-15T22:35:13.174Z,2.50
2019-03-15T22:37:42.548Z,1.50
2019-03-15T22:40:13.639Z,1.83
2019-03-15T22:42:43.173Z,1.80
2019-03-15T22:45:13.533Z,1.43
2019-03-15T22:47:42.824Z,1.13
2019-03-15T22:50:13.257Z,1.23
2019-03-15T22:52:42.521Z,1.97
2019-03-15T22:55:12.042Z,1.20
2019-03-15T22:57:41.368Z,1.37
2019-03-15T23:00:19.127Z,1.10
2019-03-15T23:02:50.139Z,2.00
2019-03-15T23:05:19.471Z,1.20
2019-03-15T23:07:48.737Z,3.57
2019-03-15T23:10:18.002Z,1.70
2019-03-15T23:12:47.585Z,1.57
2019-03-15T23:15:16.973Z,1.53
2019-03-15T23:17:46.241Z,0.90
2019-03-15T23:20:15.508Z,1.20
2019-03-15T23:22:44.778Z,1.63
2019-03-15T23:25:14.052Z,1.43
2019-03-15T23:27:44.954Z,2.13
2019-03-15T23:30:15.958Z,2.33
2019-03-15T23:32:45.306Z,1.07
2019-03-15T23:35:14.589Z,1.50
2019-03-15T23:37:43.896Z,2.87
2019-03-15T23:40:14.201Z,3.30
2019-03-15T23:42:43.482Z,1.73
2019-03-15T23:45:12.936Z,2.40
2019-03-15T23:47:42.200Z,2.30
2019-03-15T23:50:13.976Z,3.67
2019-03-15T23:52:43.325Z,2.13
2019-03-15T23:55:12.654Z,1.90
2019-03-15T23:57:41.941Z,2.20
